createdAt,value
2023-04-16T00:00:43.916Z,94908.25
2023-04-16T00:03:11.618Z,94900.59
2023-04-16T00:05:39.212Z,94898.81
2023-04-16T00:08:08.130Z,94907.44
2023-04-16T00:10:35.881Z,94900.59
2023-04-16T00:13:03.307Z,94902.38
2023-04-16T00:15:30.773Z,94897.16
2023-04-16T00:17:58.225Z,94895.38
2023-04-16T00:20:25.733Z,94892.78
2023-04-16T00:22:53.219Z,94893.72
2023-04-16T00:25:22.041Z,94898.00
2023-04-16T00:27:49.486Z,94898.94
2023-04-16T00:30:17.063Z,94895.38
2023-04-16T00:32:44.557Z,94897.16
2023-04-16T00:35:12.039Z,94902.38
2023-04-16T00:37:39.473Z,94891.13
2023-04-16T00:40:07.782Z,94896.34
2023-04-16T00:42:37.195Z,94899.78
2023-04-16T00:45:05.127Z,94890.31
2023-04-16T00:47:32.762Z,94895.53
2023-04-16T00:50:00.506Z,94898.94
2023-04-16T00:52:29.227Z,94898.94
2023-04-16T00:54:56.987Z,94895.53
2023-04-16T00:57:24.659Z,94889.34
2023-04-16T00:59:53.843Z,94885.13
2023-04-16T01:02:21.398Z,94893.72
2023-04-16T01:04:48.987Z,94893.72
2023-04-16T01:07:16.403Z,94890.31
2023-04-16T01:09:43.876Z,94897.31
2023-04-16T01:12:11.338Z,94903.38
2023-04-16T01:14:38.889Z,94896.50
2023-04-16T01:17:07.733Z,94905.16
2023-04-16T01:19:36.303Z,94899.94
2023-04-16T01:22:05.303Z,94908.56
2023-04-16T01:24:32.901Z,94902.53
2023-04-16T01:27:00.604Z,94911.19
2023-04-16T01:29:28.318Z,94911.19
2023-04-16T01:31:55.733Z,94904.31
2023-04-16T01:34:23.276Z,94903.50
2023-04-16T01:36:51.940Z,94910.34
2023-04-16T01:39:20.989Z,94912.13
2023-04-16T01:41:48.443Z,94920.78
2023-04-16T01:44:16.104Z,94919.13
2023-04-16T01:46:44.078Z,94917.34
2023-04-16T01:49:11.792Z,94922.41
2023-04-16T01:51:39.471Z,94924.22
2023-04-16T01:54:06.938Z,94924.34
2023-04-16T01:56:35.841Z,94921.75
2023-04-16T01:59:03.355Z,94918.19
2023-04-16T02:01:30.870Z,94917.34
2023-04-16T02:03:58.543Z,94916.53
2023-04-16T02:06:26.068Z,94926.94
2023-04-16T02:08:53.543Z,94916.53
2023-04-16T02:11:22.131Z,94915.69
2023-04-16T02:13:50.958Z,94913.09
2023-04-16T02:16:18.453Z,94915.69
2023-04-16T02:18:45.893Z,94910.47
2023-04-16T02:21:13.938Z,94913.09
2023-04-16T02:23:41.764Z,94914.91
2023-04-16T02:26:09.278Z,94911.31
2023-04-16T02:28:36.731Z,94926.94
2023-04-16T02:31:05.680Z,94925.16
2023-04-16T02:33:33.153Z,94918.31
2023-04-16T02:36:00.626Z,94926.94
2023-04-16T02:38:28.048Z,94927.94
2023-04-16T02:40:55.475Z,94923.53
2023-04-16T02:43:23.311Z,94926.13
2023-04-16T02:45:50.760Z,94925.34
2023-04-16T02:48:19.641Z,94937.53
2023-04-16T02:50:47.125Z,94931.34
2023-04-16T02:53:14.541Z,94926.28
2023-04-16T02:55:41.985Z,94925.34
2023-04-16T02:58:09.459Z,94927.09
2023-04-16T03:00:36.878Z,94931.34
2023-04-16T03:03:04.537Z,94934.78
2023-04-16T03:05:33.336Z,94930.53
2023-04-16T03:08:01.003Z,94933.16
2023-04-16T03:10:28.518Z,94943.56
2023-04-16T03:12:56.001Z,94937.53
2023-04-16T03:15:23.468Z,94940.97
2023-04-16T03:17:51.205Z,94937.53
2023-04-16T03:20:19.175Z,94939.31
2023-04-16T03:22:48.399Z,94942.75
2023-04-16T03:25:15.976Z,94946.19
2023-04-16T03:27:43.409Z,94944.38
2023-04-16T03:30:12.173Z,94946.97
2023-04-16T03:32:39.781Z,94943.56
2023-04-16T03:35:07.648Z,94940.97
2023-04-16T03:37:35.342Z,94941.94
2023-04-16T03:40:05.459Z,94951.41
2023-04-16T03:42:32.965Z,94950.56
2023-04-16T03:45:00.706Z,94952.34
2023-04-16T03:47:28.191Z,94957.41
2023-04-16T03:49:55.670Z,94956.63
2023-04-16T03:52:23.161Z,94949.75
2023-04-16T03:54:50.682Z,94954.00
2023-04-16T03:57:19.518Z,94953.19
2023-04-16T03:59:46.954Z,94961.81
2023-04-16T04:02:14.486Z,94964.44
2023-04-16T04:04:42.262Z,94960.00
2023-04-16T04:07:09.778Z,94967.03
2023-04-16T04:09:37.211Z,94971.44
2023-04-16T04:12:04.741Z,94974.03
2023-04-16T04:14:33.544Z,94974.03
2023-04-16T04:17:01.002Z,94974.84
2023-04-16T04:19:28.464Z,94976.63
2023-04-16T04:21:56.288Z,94988.69
2023-04-16T04:24:24.937Z,94980.88
2023-04-16T04:26:52.387Z,94975.81
2023-04-16T04:29:19.793Z,94978.25
2023-04-16T04:31:48.658Z,94980.88
2023-04-16T04:34:16.192Z,94986.91
2023-04-16T04:36:43.623Z,94979.91
2023-04-16T04:39:11.250Z,94981.69
2023-04-16T04:41:38.875Z,94984.31
2023-04-16T04:44:06.422Z,94992.13
2023-04-16T04:46:33.877Z,94989.50
2023-04-16T04:49:02.712Z,94999.94
2023-04-16T04:51:30.270Z,94992.13
2023-04-16T04:53:57.739Z,94991.28
2023-04-16T04:56:25.613Z,94993.09
2023-04-16T04:58:53.096Z,94989.50
2023-04-16T05:01:20.596Z,95007.75
2023-04-16T05:03:48.183Z,94998.16
2023-04-16T05:06:17.365Z,95005.16
2023-04-16T05:08:44.831Z,95005.16
2023-04-16T05:11:12.232Z,95005.97
2023-04-16T05:13:39.623Z,94997.34
2023-04-16T05:16:07.635Z,95009.53
2023-04-16T05:18:35.125Z,95018.06
2023-04-16T05:21:02.579Z,95016.41
2023-04-16T05:23:31.422Z,95021.63
2023-04-16T05:25:58.890Z,95018.19
2023-04-16T05:28:26.334Z,95027.66
2023-04-16T05:30:53.830Z,95025.19
2023-04-16T05:33:21.307Z,95024.22
2023-04-16T05:35:48.775Z,95030.28
2023-04-16T05:38:16.217Z,95029.44
2023-04-16T05:40:45.030Z,95036.31
2023-04-16T05:43:12.485Z,95037.09
2023-04-16T05:45:41.289Z,95033.72
2023-04-16T05:48:09.531Z,95031.09
2023-04-16T05:50:37.351Z,95024.06
2023-04-16T05:53:06.207Z,95029.44
2023-04-16T05:55:33.714Z,95033.72
2023-04-16T05:58:04.343Z,95038.91
2023-04-16T06:00:31.947Z,95033.72
2023-04-16T06:02:59.645Z,95036.31
2023-04-16T06:05:27.714Z,95046.75
2023-04-16T06:07:55.951Z,95049.34
2023-04-16T06:10:23.415Z,95045.91
2023-04-16T06:12:51.257Z,95052.91
2023-04-16T06:15:20.289Z,95050.16
2023-04-16T06:17:47.790Z,95044.13
2023-04-16T06:20:15.340Z,95044.13
2023-04-16T06:22:42.808Z,95048.38
2023-04-16T06:25:10.682Z,95047.69
2023-04-16T06:27:38.146Z,95049.34
2023-04-16T06:30:06.096Z,95048.53
2023-04-16T06:32:34.923Z,95057.16
2023-04-16T06:35:02.403Z,95060.56
2023-04-16T06:37:29.868Z,95054.56
2023-04-16T06:39:57.332Z,95056.34
2023-04-16T06:42:24.760Z,95052.75
2023-04-16T06:44:52.181Z,95057.97
2023-04-16T06:47:19.642Z,95058.94
2023-04-16T06:49:48.456Z,95058.94
2023-04-16T06:52:15.949Z,95065.78
2023-04-16T06:54:43.470Z,95069.22
2023-04-16T06:57:11.182Z,95068.38
2023-04-16T06:59:38.766Z,95077.88
2023-04-16T07:02:06.478Z,95075.41
2023-04-16T07:04:34.074Z,95081.31
2023-04-16T07:07:02.874Z,95079.66
2023-04-16T07:09:30.357Z,95077.03
2023-04-16T07:11:57.868Z,95087.47
2023-04-16T07:14:25.343Z,95080.47
2023-04-16T07:16:52.855Z,95082.25
2023-04-16T07:19:20.362Z,95077.03
2023-04-16T07:21:47.873Z,95087.31
2023-04-16T07:24:16.645Z,95087.47
2023-04-16T07:26:44.060Z,95080.47
2023-04-16T07:29:11.809Z,95081.31
2023-04-16T07:31:39.686Z,95085.84
2023-04-16T07:34:07.164Z,95084.84
2023-04-16T07:36:34.590Z,95084.84
2023-04-16T07:39:02.057Z,95091.72
2023-04-16T07:41:31.005Z,95086.50
2023-04-16T07:43:58.861Z,95090.06
2023-04-16T07:46:30.535Z,95090.06
2023-04-16T07:49:03.587Z,95086.63
2023-04-16T07:51:31.375Z,95093.50
2023-04-16T07:53:58.818Z,95096.13
2023-04-16T07:56:26.297Z,95099.56
2023-04-16T07:58:55.097Z,95107.38
2023-04-16T08:01:22.759Z,95100.34
2023-04-16T08:03:50.366Z,95110.94
2023-04-16T08:06:18.026Z,95112.59
2023-04-16T08:08:45.584Z,95113.53
2023-04-16T08:11:13.019Z,95109.16
2023-04-16T08:13:40.468Z,95117.13
2023-04-16T08:16:09.432Z,95116.97
2023-04-16T08:18:37.359Z,95116.16
2023-04-16T08:21:04.930Z,95120.53
2023-04-16T08:23:32.393Z,95113.53
2023-04-16T08:25:59.842Z,95110.94
2023-04-16T08:28:27.321Z,95116.00
2023-04-16T08:30:54.850Z,95122.34
2023-04-16T08:33:23.721Z,95119.72
2023-04-16T08:35:51.166Z,95118.75
2023-04-16T08:38:18.600Z,95127.41
2023-04-16T08:40:46.643Z,95119.56
2023-04-16T08:43:15.710Z,95118.75
2023-04-16T08:45:43.605Z,95126.56
2023-04-16T08:48:12.389Z,95122.19
2023-04-16T08:50:41.817Z,95126.56
2023-04-16T08:53:12.182Z,95123.97
2023-04-16T08:55:40.321Z,95131.78
2023-04-16T08:58:10.568Z,95126.56
2023-04-16T09:00:38.935Z,95126.56
2023-04-16T09:03:07.069Z,95121.34
2023-04-16T09:05:34.819Z,95127.41
2023-04-16T09:08:03.635Z,95127.41
2023-04-16T09:10:31.174Z,95132.78
2023-04-16T09:12:58.698Z,95131.78
2023-04-16T09:15:26.822Z,95141.38
2023-04-16T09:17:54.388Z,95139.59
2023-04-16T09:20:21.886Z,95139.59
2023-04-16T09:22:49.593Z,95148.25
2023-04-16T09:25:18.354Z,95140.44
2023-04-16T09:27:46.632Z,95142.22
2023-04-16T09:30:22.694Z,95142.22
2023-04-16T09:32:50.727Z,95135.22
2023-04-16T09:35:19.617Z,95134.41
2023-04-16T09:37:56.405Z,95138.78
2023-04-16T09:40:27.404Z,95142.22
2023-04-16T09:42:57.794Z,95143.03
2023-04-16T09:45:25.377Z,95144.00
2023-04-16T09:47:52.889Z,95139.59
2023-04-16T09:50:21.279Z,95143.19
2023-04-16T09:52:50.360Z,95143.03
2023-04-16T09:55:19.131Z,95144.81
2023-04-16T09:57:48.694Z,95149.09
2023-04-16T10:00:19.518Z,95147.44
2023-04-16T10:02:48.041Z,95155.09
2023-04-16T10:05:20.841Z,95154.28
2023-04-16T10:07:49.465Z,95151.69
2023-04-16T10:10:17.044Z,95149.88
2023-04-16T10:12:44.676Z,95164.84
2023-04-16T10:15:13.676Z,95163.06
2023-04-16T10:17:41.307Z,95171.72
2023-04-16T10:20:09.392Z,95168.28
2023-04-16T10:22:37.132Z,95167.44
2023-04-16T10:25:04.742Z,95169.94
2023-04-16T10:27:32.306Z,95164.06
2023-04-16T10:30:00.304Z,95170.88
2023-04-16T10:32:30.501Z,95168.44
2023-04-16T10:34:59.068Z,95170.88
2023-04-16T10:37:30.252Z,95164.06
2023-04-16T10:39:57.688Z,95166.50
2023-04-16T10:42:27.448Z,95165.69
2023-04-16T10:44:54.976Z,95170.88
2023-04-16T10:47:26.000Z,95160.47
2023-04-16T10:49:54.896Z,95159.63
2023-04-16T10:52:24.552Z,95164.84
2023-04-16T10:54:55.628Z,95163.91
2023-04-16T10:57:23.077Z,95165.69
2023-04-16T10:59:50.642Z,95163.75
2023-04-16T11:02:19.193Z,95176.94
2023-04-16T11:04:47.645Z,95169.09
2023-04-16T11:07:20.494Z,95167.34
2023-04-16T11:09:55.023Z,95165.69
2023-04-16T11:12:23.600Z,95170.06
2023-04-16T11:14:51.702Z,95174.31
2023-04-16T11:17:19.445Z,95171.88
2023-04-16T11:19:47.030Z,95177.09
2023-04-16T11:22:17.144Z,95176.25
2023-04-16T11:24:46.616Z,95178.56
2023-04-16T11:27:15.147Z,95184.59
2023-04-16T11:29:43.545Z,95181.16
2023-04-16T11:32:21.345Z,95181.16
2023-04-16T11:34:48.778Z,95183.78
2023-04-16T11:37:16.342Z,95185.44
2023-04-16T11:39:52.581Z,95192.41
2023-04-16T11:42:21.225Z,95186.38
2023-04-16T11:44:52.333Z,95182.00
2023-04-16T11:47:19.969Z,95189.81
2023-04-16T11:49:47.625Z,95182.81
2023-04-16T11:52:25.756Z,95187.22
2023-04-16T11:54:54.578Z,95194.91
2023-04-16T11:57:25.619Z,95190.66
2023-04-16T12:00:02.165Z,95193.25
2023-04-16T12:02:38.033Z,95195.03
2023-04-16T12:05:08.358Z,95193.25
2023-04-16T12:07:45.093Z,95188.88
2023-04-16T12:10:14.084Z,95194.06
2023-04-16T12:12:41.519Z,95198.47
2023-04-16T12:15:09.324Z,95189.69
2023-04-16T12:17:37.251Z,95187.09
2023-04-16T12:20:06.581Z,95194.06
2023-04-16T12:22:37.205Z,95194.06
2023-04-16T12:25:07.498Z,95191.47
2023-04-16T12:27:50.066Z,95196.69
2023-04-16T12:30:21.393Z,95202.72
2023-04-16T12:32:50.644Z,95203.69
2023-04-16T12:35:31.578Z,95207.22
2023-04-16T12:38:00.383Z,95208.06
2023-04-16T12:40:29.379Z,95208.06
2023-04-16T12:42:59.493Z,95204.50
2023-04-16T12:45:27.850Z,95204.50
2023-04-16T12:47:56.573Z,95205.47
2023-04-16T12:50:25.563Z,95213.97
2023-04-16T12:52:55.032Z,95214.09
2023-04-16T12:55:23.682Z,95213.28
2023-04-16T12:57:53.246Z,95214.94
2023-04-16T13:00:23.596Z,95208.06
2023-04-16T13:02:52.318Z,95209.72
2023-04-16T13:05:21.133Z,95210.66
2023-04-16T13:07:49.774Z,95210.56
2023-04-16T13:10:27.354Z,95210.66
2023-04-16T13:12:58.743Z,95199.41
2023-04-16T13:15:36.588Z,95214.94
2023-04-16T13:18:07.825Z,95212.34
2023-04-16T13:21:16.709Z,95206.28
2023-04-16T13:27:20.080Z,95206.28
2023-04-16T15:01:47.296Z,95225.38
2023-04-16T15:08:36.660Z,95231.53
2023-04-16T15:11:59.381Z,95234.13
2023-04-16T16:05:09.416Z,95246.22
2023-04-16T16:08:14.328Z,95244.56
2023-04-16T16:34:46.538Z,95249.66
2023-04-16T17:04:15.042Z,95259.25
2023-04-16T17:19:55.682Z,95271.31
2023-04-16T17:22:56.501Z,95271.31
2023-04-16T18:04:18.776Z,95306.19
2023-04-16T18:07:20.624Z,95301.81
2023-04-16T18:23:46.107Z,95326.91
2023-04-16T18:26:13.558Z,95331.28
2023-04-16T18:28:41.089Z,95329.66
2023-04-16T18:31:08.588Z,95327.88
2023-04-16T18:33:54.192Z,95335.53
2023-04-16T18:36:23.524Z,95339.94
2023-04-16T18:39:00.076Z,95345.16
2023-04-16T18:41:29.007Z,95341.72
2023-04-16T18:43:56.516Z,95345.97
2023-04-16T18:46:24.096Z,95345.97
2023-04-16T18:48:51.673Z,95357.34
2023-04-16T18:51:19.105Z,95350.38
2023-04-16T18:53:46.611Z,95359.97
2023-04-16T18:56:15.442Z,95355.56
2023-04-16T18:58:43.196Z,95354.75
2023-04-16T19:01:13.026Z,95357.34
2023-04-16T19:03:40.826Z,95356.41
2023-04-16T19:06:08.412Z,95366.84
2023-04-16T19:08:35.907Z,95361.63
2023-04-16T19:11:03.429Z,95372.06
2023-04-16T19:13:32.308Z,95365.06
2023-04-16T19:16:00.449Z,95372.88
2023-04-16T19:18:28.145Z,95372.88
2023-04-16T19:20:59.769Z,95373.69
2023-04-16T19:23:27.333Z,95377.25
2023-04-16T19:25:56.169Z,95379.88
2023-04-16T19:28:23.807Z,95381.66
2023-04-16T19:30:52.738Z,95378.09
2023-04-16T19:33:20.424Z,95378.91
2023-04-16T19:35:47.907Z,95380.69
2023-04-16T19:38:15.627Z,95382.47
2023-04-16T19:40:44.725Z,95380.81
2023-04-16T19:43:12.250Z,95384.25
2023-04-16T19:45:43.373Z,95382.47
2023-04-16T19:48:12.341Z,95385.91
2023-04-16T19:50:40.168Z,95391.94
2023-04-16T19:53:07.717Z,95385.91
2023-04-16T19:55:35.431Z,95383.31
2023-04-16T19:58:06.387Z,95385.09
2023-04-16T20:00:34.215Z,95379.03
2023-04-16T20:03:01.747Z,95391.94
2023-04-16T20:05:30.922Z,95391.13
2023-04-16T20:07:58.406Z,95388.53
2023-04-16T20:10:26.355Z,95391.13
2023-04-16T20:12:53.781Z,95399.75
2023-04-16T20:15:21.716Z,95399.75
2023-04-16T20:17:49.260Z,95395.53
2023-04-16T20:20:17.376Z,95398.13
2023-04-16T20:22:46.240Z,95392.06
2023-04-16T20:25:14.324Z,95387.69
2023-04-16T20:27:41.824Z,95383.31
2023-04-16T20:30:09.629Z,95378.09
2023-04-16T20:32:37.394Z,95380.69
2023-04-16T20:35:10.177Z,95379.88
2023-04-16T20:37:38.402Z,95381.50
2023-04-16T20:40:09.189Z,95373.81
2023-04-16T20:42:36.697Z,95373.69
2023-04-16T20:45:04.834Z,95374.66
2023-04-16T20:47:34.512Z,95379.03
2023-04-16T20:50:02.779Z,95375.50
2023-04-16T20:52:30.732Z,95376.44
2023-04-16T20:54:58.153Z,95374.66
2023-04-16T20:57:28.114Z,95377.25
2023-04-16T20:59:55.533Z,95380.69
2023-04-16T21:02:24.220Z,95384.09
2023-04-16T21:04:52.048Z,95381.66
2023-04-16T21:07:19.612Z,95378.91
2023-04-16T21:09:47.047Z,95375.59
2023-04-16T21:12:14.490Z,95376.44
2023-04-16T21:14:43.261Z,95377.25
2023-04-16T21:17:10.762Z,95378.22
2023-04-16T21:19:38.182Z,95379.88
2023-04-16T21:22:05.654Z,95378.09
2023-04-16T21:24:33.306Z,95377.25
2023-04-16T21:27:01.752Z,95376.44
2023-04-16T21:29:29.976Z,95382.47
2023-04-16T21:31:59.294Z,95384.94
2023-04-16T21:34:27.015Z,95385.09
2023-04-16T21:36:54.784Z,95384.09
2023-04-16T21:39:22.694Z,95386.88
2023-04-16T21:41:50.562Z,95384.25
2023-04-16T21:44:18.294Z,95384.09
2023-04-16T21:46:46.287Z,95386.88
2023-04-16T21:49:15.092Z,95384.25
2023-04-16T21:51:43.008Z,95377.25
2023-04-16T21:54:13.401Z,95382.47
2023-04-16T21:56:41.457Z,95383.31
2023-04-16T21:59:10.111Z,95382.47
2023-04-16T22:01:37.937Z,95387.69
2023-04-16T22:04:07.534Z,95385.09
2023-04-16T22:06:36.880Z,95390.97
2023-04-16T22:09:05.265Z,95384.25
2023-04-16T22:11:33.064Z,95379.88
2023-04-16T22:14:00.710Z,95383.31
2023-04-16T22:16:31.236Z,95379.88
2023-04-16T22:19:00.413Z,95382.47
2023-04-16T22:21:28.193Z,95371.22
2023-04-16T22:23:57.402Z,95375.50
2023-04-16T22:26:25.181Z,95382.47
2023-04-16T22:28:52.657Z,95382.47
2023-04-16T22:31:20.125Z,95377.25
2023-04-16T22:33:47.628Z,95372.06
2023-04-16T22:36:15.048Z,95379.88
2023-04-16T22:38:42.462Z,95373.00
2023-04-16T22:41:11.255Z,95372.19
2023-04-16T22:43:38.685Z,95376.44
2023-04-16T22:46:06.970Z,95368.63
2023-04-16T22:48:36.172Z,95372.88
2023-04-16T22:51:04.388Z,95369.44
2023-04-16T22:53:31.981Z,95372.88
2023-04-16T22:55:59.519Z,95367.78
2023-04-16T22:58:28.381Z,95367.78
2023-04-16T23:00:56.643Z,95370.28
2023-04-16T23:03:24.158Z,95372.06
2023-04-16T23:05:51.671Z,95373.69
2023-04-16T23:08:19.161Z,95371.06
2023-04-16T23:10:46.582Z,95368.63
2023-04-16T23:13:14.262Z,95366.84
2023-04-16T23:15:43.731Z,95364.22
2023-04-16T23:18:11.302Z,95364.22
2023-04-16T23:20:38.809Z,95366.84
2023-04-16T23:23:06.240Z,95371.06
2023-04-16T23:25:33.667Z,95365.19
2023-04-16T23:28:01.131Z,95356.41
2023-04-16T23:30:28.551Z,95366.00
2023-04-16T23:32:57.407Z,95364.22
2023-04-16T23:35:24.932Z,95366.84
2023-04-16T23:37:52.369Z,95370.38
2023-04-16T23:40:19.851Z,95364.38
2023-04-16T23:42:47.350Z,95366.00
2023-04-16T23:45:14.804Z,95369.44
2023-04-16T23:47:42.397Z,95371.22
2023-04-16T23:50:11.684Z,95372.06
2023-04-16T23:52:39.111Z,95359.97
2023-04-16T23:55:06.752Z,95370.28
2023-04-16T23:57:34.164Z,95366.84
